In Rescue
 
Open Full Screen Window  High Contrast Mode
Wind Gusting 00 knots
13
May 20, 2019 3:21 PM EDT
Weather Information
Wind Direction
  300 °
Wind Speed
  13 kt (15 mph)
Wind Gust
  00 kt (0 mph)
Altimeter
30.01 in
Visibility
10 SM
Temperature
17° C
63° F
Dewpoint
10° C
50° F
Humidity
64%
1hr Rain Fall
00.00 in.
24hr Rain Fall
00.21 in.
Sky Condition
Overcast @ 4,000 ft
Broken @ 3,300 ft
VFR

METAR KMRT 201921Z AUTO 30013KT 10SM BKN033 OVC040 17/10 A3001 RMK AO2 T01680100

FAA Disclaimer: The data displayed is for advisory purposes only and is not to be used for flight planning or operations.